createdAt,value
2022-11-26T00:01:17.581Z,11.82
2022-11-26T00:02:49.461Z,12.80
2022-11-26T00:04:21.271Z,10.63
2022-11-26T00:05:55.968Z,11.82
2022-11-26T00:07:31.019Z,11.27
2022-11-26T00:09:05.443Z,12.25
2022-11-26T00:10:37.225Z,12.02
2022-11-26T00:12:19.087Z,12.80
2022-11-26T00:13:50.840Z,12.77
2022-11-26T00:15:25.135Z,13.32
2022-11-26T00:16:56.865Z,12.23
2022-11-26T00:18:28.607Z,11.10
2022-11-26T00:20:00.332Z,10.40
2022-11-26T00:21:35.181Z,11.80
2022-11-26T00:23:07.628Z,12.30
2022-11-26T00:24:39.564Z,13.13
2022-11-26T00:26:17.163Z,12.85
2022-11-26T00:27:50.839Z,12.50
2022-11-26T00:29:22.594Z,10.60
2022-11-26T00:30:56.308Z,11.52
2022-11-26T00:32:28.039Z,11.13
2022-11-26T00:33:59.796Z,11.50
2022-11-26T00:35:31.568Z,11.52
2022-11-26T00:37:03.361Z,10.65
2022-11-26T00:38:35.116Z,10.98
2022-11-26T00:40:07.881Z,11.05
2022-11-26T00:41:39.944Z,11.98
2022-11-26T00:43:13.093Z,10.80
2022-11-26T00:44:44.857Z,10.52
2022-11-26T00:46:21.273Z,11.85
2022-11-26T00:47:53.642Z,13.73
2022-11-26T00:49:25.392Z,11.30
2022-11-26T00:50:57.424Z,10.82
2022-11-26T00:52:34.822Z,11.30
2022-11-26T00:54:09.956Z,10.85
2022-11-26T00:55:45.960Z,10.05
2022-11-26T00:57:17.762Z,11.75
2022-11-26T00:58:50.600Z,11.75
2022-11-26T01:00:25.644Z,12.40
2022-11-26T01:01:57.474Z,12.07
2022-11-26T01:03:29.744Z,12.45
2022-11-26T01:05:01.568Z,11.68
2022-11-26T01:06:36.985Z,11.45
2022-11-26T01:08:35.652Z,12.13
2022-11-26T01:10:16.881Z,12.77
2022-11-26T01:11:53.764Z,12.27
2022-11-26T01:13:26.772Z,10.27
2022-11-26T01:14:58.552Z,11.93
2022-11-26T01:16:35.454Z,11.93
2022-11-26T01:18:26.261Z,11.73
2022-11-26T01:19:57.996Z,13.68
2022-11-26T01:21:31.599Z,11.15
2022-11-26T01:23:03.374Z,12.77
2022-11-26T01:24:35.279Z,12.07
2022-11-26T01:26:31.189Z,11.75
2022-11-26T01:28:03.131Z,13.68
2022-11-26T01:29:34.849Z,12.10
2022-11-26T01:31:13.777Z,13.32
2022-11-26T01:32:46.329Z,11.00
2022-11-26T01:34:18.093Z,12.40
2022-11-26T01:35:49.826Z,12.23
2022-11-26T01:37:21.556Z,11.05
2022-11-26T01:38:58.595Z,11.90
2022-11-26T01:40:49.518Z,12.30
2022-11-26T01:42:43.205Z,14.23
2022-11-26T01:44:19.028Z,13.45
2022-11-26T01:45:50.806Z,12.98
2022-11-26T01:47:25.764Z,12.15
2022-11-26T01:49:19.624Z,13.13
2022-11-26T01:50:57.312Z,10.52
2022-11-26T01:52:29.097Z,11.57
2022-11-26T01:54:01.169Z,11.13
2022-11-26T01:56:00.877Z,11.70
2022-11-26T01:57:33.998Z,12.50
2022-11-26T01:59:20.635Z,12.05
2022-11-26T02:00:52.547Z,12.95
2022-11-26T02:02:29.973Z,12.20
2022-11-26T02:04:33.201Z,11.65
2022-11-26T02:06:10.549Z,12.95
2022-11-26T02:07:42.493Z,12.20
2022-11-26T02:09:15.089Z,12.23
2022-11-26T02:10:46.882Z,10.95
2022-11-26T02:12:18.807Z,12.38
2022-11-26T02:13:55.303Z,14.52
2022-11-26T02:15:32.518Z,12.13
2022-11-26T02:17:10.080Z,12.05
2022-11-26T02:18:47.664Z,12.27
2022-11-26T02:20:44.352Z,13.68
2022-11-26T02:22:34.401Z,15.00
2022-11-26T02:24:24.548Z,14.82
2022-11-26T02:26:18.150Z,12.65
2022-11-26T02:28:27.502Z,13.23
2022-11-26T02:30:07.981Z,12.93
2022-11-26T02:31:43.303Z,13.48
2022-11-26T02:33:24.143Z,12.23
2022-11-26T02:35:06.751Z,13.40
2022-11-26T02:37:08.125Z,11.93
2022-11-26T02:38:40.061Z,14.13
2022-11-26T02:40:11.948Z,12.65
2022-11-26T02:41:58.404Z,12.32
2022-11-26T02:43:31.610Z,12.82
2022-11-26T02:45:11.539Z,14.23
2022-11-26T02:46:48.009Z,14.65
2022-11-26T02:48:24.179Z,13.07
2022-11-26T02:49:58.739Z,14.48
2022-11-26T02:51:34.828Z,13.10
2022-11-26T02:53:07.429Z,14.77
2022-11-26T02:54:41.660Z,13.00
2022-11-26T02:56:21.554Z,14.07
2022-11-26T02:57:54.519Z,15.10
2022-11-26T02:59:26.494Z,15.07
2022-11-26T03:01:01.174Z,12.55
2022-11-26T03:02:40.903Z,13.23
2022-11-26T03:04:41.427Z,15.00
2022-11-26T03:06:15.080Z,14.55
2022-11-26T03:07:51.665Z,14.85
2022-11-26T03:09:23.889Z,15.50
2022-11-26T03:10:55.645Z,13.95
2022-11-26T03:12:27.815Z,14.45
2022-11-26T03:13:59.709Z,14.00
2022-11-26T03:15:31.442Z,14.27
2022-11-26T03:17:03.230Z,13.82
2022-11-26T03:18:34.970Z,13.30
2022-11-26T03:20:07.488Z,13.88
2022-11-26T03:21:39.306Z,11.63
2022-11-26T03:23:11.066Z,12.35
2022-11-26T03:24:42.969Z,13.20
2022-11-26T03:26:14.713Z,12.15
2022-11-26T03:27:46.463Z,12.65
2022-11-26T03:29:18.284Z,11.80
2022-11-26T03:30:50.956Z,12.88
2022-11-26T03:32:22.995Z,13.07
2022-11-26T03:33:54.741Z,12.88
2022-11-26T03:35:26.481Z,13.68
2022-11-26T03:36:58.247Z,14.43
2022-11-26T03:38:30.129Z,12.23
2022-11-26T03:40:02.077Z,12.70
2022-11-26T03:41:34.029Z,11.95
2022-11-26T03:43:06.026Z,12.05
2022-11-26T03:44:38.350Z,12.88
2022-11-26T03:46:10.325Z,13.20
2022-11-26T03:47:42.189Z,12.82
2022-11-26T03:49:13.931Z,14.80
2022-11-26T03:50:45.900Z,13.38
2022-11-26T03:52:17.717Z,13.60
2022-11-26T03:53:49.503Z,12.63
2022-11-26T03:55:21.269Z,12.50
2022-11-26T03:56:53.040Z,12.52
2022-11-26T03:58:24.941Z,11.98
2022-11-26T03:59:56.823Z,13.30
2022-11-26T04:01:28.651Z,13.38
2022-11-26T04:03:00.527Z,11.90
2022-11-26T04:04:32.385Z,12.55
2022-11-26T04:06:04.956Z,13.07
2022-11-26T04:07:36.789Z,13.80
2022-11-26T04:09:08.746Z,12.75
2022-11-26T04:10:40.512Z,12.93
2022-11-26T04:12:12.272Z,12.88
2022-11-26T04:13:44.153Z,13.07
2022-11-26T04:15:15.896Z,13.75
2022-11-26T04:16:47.772Z,13.73
2022-11-26T04:18:19.608Z,13.82
2022-11-26T04:19:51.388Z,13.95
2022-11-26T04:21:23.497Z,13.23
2022-11-26T04:22:55.248Z,14.38
2022-11-26T04:24:27.072Z,14.27
2022-11-26T04:25:58.869Z,14.05
2022-11-26T04:27:30.634Z,13.65
2022-11-26T04:29:02.381Z,14.13
2022-11-26T04:30:34.128Z,13.68
2022-11-26T04:32:06.328Z,15.02
2022-11-26T04:33:38.117Z,14.38
2022-11-26T04:35:10.231Z,15.02
2022-11-26T04:36:41.988Z,13.38
2022-11-26T04:38:13.768Z,13.60
2022-11-26T04:39:45.501Z,13.18
2022-11-26T04:41:17.275Z,13.20
2022-11-26T04:42:49.102Z,13.20
2022-11-26T04:44:20.840Z,13.23
2022-11-26T04:45:52.663Z,13.65
2022-11-26T04:47:24.477Z,14.07
2022-11-26T04:48:56.232Z,13.18
2022-11-26T04:50:28.097Z,14.43
2022-11-26T04:51:59.856Z,13.05
2022-11-26T04:53:31.591Z,13.48
2022-11-26T04:55:03.413Z,14.40
2022-11-26T04:56:35.212Z,13.18
2022-11-26T04:58:07.357Z,14.20
2022-11-26T04:59:39.099Z,15.43
2022-11-26T05:01:10.896Z,15.25
2022-11-26T05:02:42.867Z,14.70
2022-11-26T05:04:14.688Z,13.77
2022-11-26T05:05:47.287Z,13.98
2022-11-26T05:07:19.112Z,13.38
2022-11-26T05:08:50.900Z,14.90
2022-11-26T05:10:22.749Z,13.73
2022-11-26T05:11:54.527Z,13.55
2022-11-26T05:13:26.333Z,13.88
2022-11-26T05:14:59.352Z,15.35
2022-11-26T05:16:31.116Z,14.07
2022-11-26T05:18:02.978Z,14.35
2022-11-26T05:19:34.800Z,15.27
2022-11-26T05:21:06.966Z,15.27
2022-11-26T05:22:38.772Z,15.75
2022-11-26T05:24:10.513Z,14.23
2022-11-26T05:25:42.369Z,13.57
2022-11-26T05:27:14.391Z,15.23
2022-11-26T05:28:46.158Z,14.65
2022-11-26T05:30:17.952Z,15.60
2022-11-26T05:31:49.789Z,14.77
2022-11-26T05:33:21.620Z,14.68
2022-11-26T05:34:57.007Z,14.35
2022-11-26T05:36:31.563Z,14.48
2022-11-26T05:38:03.333Z,13.40
2022-11-26T05:39:35.060Z,14.90
2022-11-26T05:41:06.973Z,16.10
2022-11-26T05:42:38.977Z,14.68
2022-11-26T05:44:10.745Z,16.23
2022-11-26T05:45:42.620Z,15.23
2022-11-26T05:47:14.440Z,16.33
2022-11-26T05:48:46.181Z,15.63
2022-11-26T05:50:18.144Z,16.08
2022-11-26T05:51:49.901Z,14.43
2022-11-26T05:53:21.664Z,14.52
2022-11-26T05:54:53.454Z,15.60
2022-11-26T05:56:25.622Z,16.55
2022-11-26T05:57:57.377Z,15.90
2022-11-26T05:59:29.297Z,16.90
2022-11-26T06:01:01.062Z,16.90
2022-11-26T06:02:32.957Z,15.68
2022-11-26T06:04:05.026Z,15.02
2022-11-26T06:05:36.762Z,19.45
2022-11-26T06:07:08.536Z,15.57
2022-11-26T06:08:40.318Z,17.10
2022-11-26T06:10:13.129Z,15.73
2022-11-26T06:11:44.895Z,16.80
2022-11-26T06:13:16.947Z,15.73
2022-11-26T06:14:49.100Z,19.13
2022-11-26T06:16:21.124Z,15.88
2022-11-26T06:17:52.884Z,15.73
2022-11-26T06:19:24.745Z,17.05
2022-11-26T06:21:01.184Z,14.38
2022-11-26T06:22:40.998Z,14.90
2022-11-26T06:24:12.770Z,16.90
2022-11-26T06:25:44.505Z,16.30
2022-11-26T06:27:16.265Z,16.27
2022-11-26T06:28:48.013Z,14.70
2022-11-26T06:30:19.901Z,15.93
2022-11-26T06:31:51.836Z,14.35
2022-11-26T06:33:23.641Z,14.60
2022-11-26T06:34:55.669Z,15.50
2022-11-26T06:36:27.413Z,14.57
2022-11-26T06:37:59.207Z,15.63
2022-11-26T06:39:31.036Z,14.88
2022-11-26T06:41:08.684Z,15.15
2022-11-26T06:42:40.419Z,15.02
2022-11-26T06:44:12.157Z,15.93
2022-11-26T06:45:43.974Z,16.23
2022-11-26T06:47:16.064Z,16.08
2022-11-26T06:48:47.806Z,15.70
2022-11-26T06:50:21.494Z,14.77
2022-11-26T06:51:54.477Z,15.15
2022-11-26T06:53:26.226Z,16.67
2022-11-26T06:54:57.977Z,15.77
2022-11-26T06:56:29.740Z,15.02
2022-11-26T06:58:01.512Z,15.40
2022-11-26T06:59:33.299Z,15.27
2022-11-26T07:01:09.774Z,15.63
2022-11-26T07:02:42.708Z,14.77
2022-11-26T07:04:14.664Z,15.05
2022-11-26T07:05:46.450Z,15.43
2022-11-26T07:07:18.286Z,14.68
2022-11-26T07:08:51.393Z,15.45
2022-11-26T07:10:23.163Z,14.68
2022-11-26T07:11:54.920Z,14.75
2022-11-26T07:13:26.673Z,13.32
2022-11-26T07:14:58.467Z,13.63
2022-11-26T07:16:30.265Z,13.95
2022-11-26T07:18:02.071Z,13.88
2022-11-26T07:19:33.803Z,15.02
2022-11-26T07:21:11.300Z,14.40
2022-11-26T07:22:43.257Z,15.02
2022-11-26T07:24:15.577Z,14.90
2022-11-26T07:25:47.329Z,14.75
2022-11-26T07:27:19.149Z,15.50
2022-11-26T07:28:51.156Z,18.02
2022-11-26T07:30:23.097Z,15.75
2022-11-26T07:31:54.912Z,15.07
2022-11-26T07:33:26.687Z,13.85
2022-11-26T07:34:58.453Z,13.73
2022-11-26T07:36:31.159Z,16.02
2022-11-26T07:38:02.918Z,13.45
2022-11-26T07:39:34.816Z,18.60
2022-11-26T07:41:08.983Z,13.95
2022-11-26T07:42:40.722Z,15.88
2022-11-26T07:44:15.556Z,13.10
2022-11-26T07:45:47.348Z,13.82
2022-11-26T07:47:19.110Z,16.73
2022-11-26T07:48:51.023Z,17.85
2022-11-26T07:50:22.761Z,16.40
2022-11-26T07:51:54.697Z,14.77
2022-11-26T07:53:34.062Z,14.63
2022-11-26T07:55:11.036Z,15.15
2022-11-26T07:56:44.216Z,14.52
2022-11-26T07:58:16.061Z,13.88
2022-11-26T07:59:47.793Z,14.52
2022-11-26T08:01:22.257Z,15.90
2022-11-26T08:02:54.155Z,17.20
2022-11-26T08:04:25.970Z,14.93
2022-11-26T08:05:57.697Z,15.25
2022-11-26T08:07:29.775Z,13.57
2022-11-26T08:09:02.634Z,14.27
2022-11-26T08:10:34.384Z,14.63
2022-11-26T08:12:06.914Z,15.13
2022-11-26T08:13:38.752Z,14.38
2022-11-26T08:15:10.917Z,12.45
2022-11-26T08:16:42.820Z,13.48
2022-11-26T08:18:14.620Z,13.35
2022-11-26T08:19:46.400Z,14.50
2022-11-26T08:21:18.105Z,14.38
2022-11-26T08:22:50.387Z,12.55
2022-11-26T08:24:23.821Z,12.55
2022-11-26T08:27:47.695Z,13.77
2022-11-26T08:29:19.471Z,14.02
2022-11-26T08:30:51.218Z,13.70
2022-11-26T08:32:22.964Z,15.95
2022-11-26T08:33:59.473Z,13.30
2022-11-26T08:35:59.090Z,12.57
2022-11-26T08:37:22.931Z,12.43
2022-11-26T08:38:55.175Z,13.63
2022-11-26T08:40:27.246Z,14.55
2022-11-26T08:41:58.986Z,13.20
2022-11-26T08:44:04.117Z,13.25
2022-11-26T08:45:22.985Z,13.40
2022-11-26T08:46:54.705Z,11.60
2022-11-26T08:48:31.720Z,12.45
2022-11-26T08:50:04.858Z,13.38
2022-11-26T08:51:36.640Z,14.38
2022-11-26T08:53:08.381Z,12.43
2022-11-26T08:54:44.791Z,13.73
2022-11-26T08:56:17.107Z,13.30
2022-11-26T08:57:48.848Z,12.70
2022-11-26T08:59:23.041Z,13.52
2022-11-26T09:00:55.251Z,14.23
2022-11-26T09:02:27.205Z,12.70
2022-11-26T09:04:00.392Z,12.73
2022-11-26T09:05:32.141Z,12.43
2022-11-26T09:07:03.985Z,16.88
2022-11-26T09:08:56.556Z,12.65
2022-11-26T09:10:28.556Z,13.48
2022-11-26T09:12:02.326Z,12.90
2022-11-26T09:13:34.080Z,12.30
2022-11-26T09:15:06.315Z,11.30
2022-11-26T09:16:38.225Z,12.20
2022-11-26T09:18:10.016Z,12.60
2022-11-26T09:19:42.098Z,12.32
2022-11-26T09:21:13.886Z,12.10
2022-11-26T09:22:45.600Z,12.80
2022-11-26T09:24:17.951Z,11.38
2022-11-26T09:25:49.911Z,10.55
2022-11-26T09:27:21.634Z,11.18
2022-11-26T09:28:53.460Z,16.10
2022-11-26T09:30:25.227Z,13.77
2022-11-26T09:33:48.681Z,12.02
2022-11-26T09:35:20.398Z,10.10
2022-11-26T09:36:52.157Z,11.80
2022-11-26T09:38:23.929Z,11.15
2022-11-26T09:39:55.719Z,9.73
2022-11-26T09:41:35.452Z,11.00
2022-11-26T09:43:28.287Z,10.15
2022-11-26T09:45:14.900Z,10.50
2022-11-26T09:47:10.422Z,11.40
2022-11-26T09:48:43.625Z,12.00
2022-11-26T09:50:15.294Z,11.52
2022-11-26T09:51:51.792Z,11.10
2022-11-26T09:53:31.262Z,11.07
2022-11-26T09:55:26.376Z,10.68
2022-11-26T09:57:27.979Z,8.90
2022-11-26T09:59:02.776Z,9.88
2022-11-26T10:00:44.232Z,11.35
2022-11-26T10:02:16.547Z,10.20
2022-11-26T10:03:48.861Z,10.93
2022-11-26T10:05:24.002Z,12.00
2022-11-26T10:07:04.544Z,13.50
2022-11-26T10:09:04.030Z,11.73
2022-11-26T10:10:50.160Z,11.35
2022-11-26T10:13:10.898Z,11.13
2022-11-26T10:14:52.055Z,10.57
2022-11-26T10:16:50.169Z,11.82
2022-11-26T10:18:45.637Z,10.15
2022-11-26T10:20:53.919Z,11.18
2022-11-26T10:22:57.474Z,11.23
2022-11-26T10:24:42.150Z,14.25
2022-11-26T10:26:27.472Z,12.30
2022-11-26T10:28:00.244Z,13.27
2022-11-26T10:29:42.155Z,11.02
2022-11-26T10:31:27.185Z,15.13
2022-11-26T10:33:02.655Z,12.90
2022-11-26T10:35:00.905Z,12.32
2022-11-26T10:36:37.064Z,13.48
2022-11-26T10:38:10.963Z,12.70
2022-11-26T10:39:42.749Z,13.73
2022-11-26T10:41:15.907Z,13.65
2022-11-26T10:43:18.468Z,12.52
2022-11-26T10:44:54.499Z,13.65
2022-11-26T10:46:35.369Z,11.65
2022-11-26T10:48:30.864Z,11.45
2022-11-26T10:50:14.249Z,14.10
2022-11-26T10:52:04.144Z,10.13
2022-11-26T10:53:50.017Z,13.00
2022-11-26T10:55:26.983Z,10.88
2022-11-26T10:57:04.624Z,12.02
2022-11-26T10:58:43.901Z,11.15
2022-11-26T11:00:38.681Z,11.20
2022-11-26T11:02:22.552Z,12.70
2022-11-26T11:04:13.599Z,11.57
2022-11-26T11:05:45.591Z,11.88
2022-11-26T11:07:29.101Z,10.63
2022-11-26T11:09:00.964Z,12.50
2022-11-26T11:10:32.892Z,14.23
2022-11-26T11:12:13.682Z,12.77
2022-11-26T11:13:47.675Z,10.68
2022-11-26T11:15:28.699Z,11.75
2022-11-26T11:17:00.567Z,12.77
2022-11-26T11:18:33.696Z,10.98
2022-11-26T11:20:17.649Z,9.23
2022-11-26T11:21:49.572Z,11.40
2022-11-26T11:23:59.982Z,10.30
2022-11-26T11:25:34.323Z,9.05
2022-11-26T11:27:06.107Z,10.13
2022-11-26T11:28:43.382Z,10.27
2022-11-26T11:30:26.849Z,9.73
2022-11-26T11:32:00.123Z,10.73
2022-11-26T11:33:32.066Z,9.77
2022-11-26T11:35:18.851Z,9.85
2022-11-26T11:37:03.971Z,11.82
2022-11-26T11:39:02.049Z,9.73
2022-11-26T11:40:42.300Z,10.65
2022-11-26T11:42:30.063Z,10.82
2022-11-26T11:44:14.468Z,9.63
2022-11-26T11:46:17.678Z,10.77
2022-11-26T11:47:53.217Z,8.82
2022-11-26T11:49:49.523Z,11.70
2022-11-26T11:51:27.193Z,10.90
2022-11-26T11:53:26.274Z,11.80
2022-11-26T11:55:09.426Z,11.40
2022-11-26T11:56:48.183Z,11.07
2022-11-26T11:58:25.674Z,12.82
2022-11-26T12:00:15.407Z,12.75
2022-11-26T12:02:10.133Z,12.15
2022-11-26T12:03:56.348Z,11.57
2022-11-26T12:05:48.845Z,12.00
2022-11-26T12:07:34.680Z,12.20
2022-11-26T12:09:12.248Z,11.00
2022-11-26T12:10:59.012Z,12.93
2022-11-26T12:12:36.821Z,14.13
2022-11-26T12:14:32.502Z,11.35
2022-11-26T12:16:09.799Z,11.60
2022-11-26T12:17:54.931Z,12.90
2022-11-26T12:19:42.285Z,12.10
2022-11-26T12:21:16.397Z,11.52
2022-11-26T12:23:14.520Z,13.73
2022-11-26T12:25:26.804Z,10.93
2022-11-26T12:27:04.689Z,11.73
2022-11-26T12:28:52.653Z,12.85
2022-11-26T12:30:36.433Z,13.00
2022-11-26T12:32:28.556Z,11.15
2022-11-26T12:34:08.851Z,11.18
2022-11-26T12:35:48.130Z,14.52
2022-11-26T12:37:30.592Z,13.70
2022-11-26T12:39:06.504Z,12.20
2022-11-26T12:40:45.969Z,13.77
2022-11-26T12:42:44.335Z,12.65
2022-11-26T12:44:41.008Z,12.20
2022-11-26T12:46:42.772Z,11.10
2022-11-26T12:48:41.525Z,10.45
2022-11-26T12:50:19.605Z,11.45
2022-11-26T12:52:14.609Z,10.15
2022-11-26T12:53:56.050Z,11.07
2022-11-26T12:59:03.571Z,13.30
2022-11-26T13:00:36.493Z,11.07
2022-11-26T13:02:25.103Z,10.15
2022-11-26T13:04:21.507Z,11.35
2022-11-26T13:06:03.591Z,9.90
2022-11-26T13:07:54.061Z,11.75
2022-11-26T13:09:47.265Z,9.93
2022-11-26T13:11:45.340Z,12.32
2022-11-26T13:13:51.216Z,12.20
2022-11-26T13:15:30.782Z,10.65
2022-11-26T13:17:10.173Z,11.32
2022-11-26T13:18:48.040Z,12.35
2022-11-26T13:20:46.989Z,12.77
2022-11-26T13:22:42.552Z,12.70
2022-11-26T13:24:20.333Z,14.98
2022-11-26T13:26:13.967Z,15.55
2022-11-26T13:28:04.521Z,12.05
2022-11-26T13:30:04.547Z,12.65
2022-11-26T13:31:54.109Z,12.90
2022-11-26T13:33:56.775Z,13.85
2022-11-26T13:35:49.519Z,12.18
2022-11-26T13:37:42.937Z,11.13
2022-11-26T13:39:33.274Z,11.65
2022-11-26T13:41:50.625Z,12.07
2022-11-26T13:43:50.091Z,11.85
2022-11-26T13:45:30.782Z,11.23
2022-11-26T13:47:20.856Z,13.82
2022-11-26T13:49:19.202Z,11.15
2022-11-26T13:51:01.936Z,13.07
2022-11-26T13:52:39.604Z,11.52
2022-11-26T13:54:15.653Z,11.27
2022-11-26T13:56:03.482Z,11.40
2022-11-26T13:57:48.622Z,10.63
2022-11-26T13:59:28.279Z,11.40
2022-11-26T14:01:40.602Z,13.55
2022-11-26T14:03:49.095Z,9.93
2022-11-26T14:05:21.147Z,13.38
2022-11-26T14:07:04.833Z,10.63
2022-11-26T14:08:44.063Z,10.88
2022-11-26T14:10:34.246Z,9.75
2022-11-26T14:12:05.991Z,10.95
2022-11-26T14:13:38.774Z,10.40
2022-11-26T14:15:42.561Z,11.02
2022-11-26T14:17:31.102Z,9.77
2022-11-26T14:19:05.757Z,9.68
2022-11-26T14:21:02.491Z,10.07
2022-11-26T14:22:35.859Z,14.95
2022-11-26T14:24:07.637Z,10.48
2022-11-26T14:25:39.459Z,9.88
2022-11-26T14:27:11.203Z,9.70
2022-11-26T14:28:42.925Z,9.77
2022-11-26T14:30:21.069Z,9.13
2022-11-26T14:31:54.829Z,10.43
2022-11-26T14:33:29.355Z,9.57
2022-11-26T14:35:01.108Z,10.23
2022-11-26T14:36:32.861Z,11.32
2022-11-26T14:38:21.580Z,10.13
2022-11-26T14:40:09.623Z,9.30
2022-11-26T14:41:41.309Z,10.23
2022-11-26T14:43:20.202Z,9.98
2022-11-26T14:45:20.788Z,10.18
2022-11-26T14:46:56.820Z,9.45
2022-11-26T14:48:30.971Z,8.48
2022-11-26T14:50:06.495Z,9.35
2022-11-26T14:51:38.307Z,10.25
2022-11-26T14:53:12.271Z,8.57
2022-11-26T14:54:48.135Z,8.57
2022-11-26T14:56:23.309Z,9.35
2022-11-26T14:58:02.734Z,8.35
2022-11-26T14:59:36.686Z,9.70
2022-11-26T15:01:23.691Z,8.48
2022-11-26T15:02:56.711Z,9.35
2022-11-26T15:04:30.990Z,9.32
2022-11-26T15:06:02.865Z,8.85
2022-11-26T15:07:34.661Z,9.00
2022-11-26T15:09:25.657Z,10.80
2022-11-26T15:11:01.834Z,10.68
2022-11-26T15:12:36.321Z,9.13
2022-11-26T15:14:18.605Z,10.30
2022-11-26T15:15:55.730Z,10.23
2022-11-26T15:17:30.758Z,9.52
2022-11-26T15:19:04.604Z,9.80
2022-11-26T15:20:36.541Z,8.77
2022-11-26T15:22:20.768Z,9.38
2022-11-26T15:23:53.381Z,11.10
2022-11-26T15:25:34.306Z,9.13
2022-11-26T15:27:06.156Z,10.50
2022-11-26T15:28:39.268Z,10.45
2022-11-26T15:30:31.928Z,12.18
2022-11-26T15:32:04.330Z,14.70
2022-11-26T15:33:37.975Z,12.85
2022-11-26T15:35:14.200Z,13.15
2022-11-26T15:36:46.043Z,12.23
2022-11-26T15:38:20.674Z,13.02
2022-11-26T15:40:09.452Z,12.30
2022-11-26T15:41:42.754Z,15.85
2022-11-26T15:43:26.575Z,13.40
2022-11-26T15:44:58.940Z,15.85
2022-11-26T15:46:34.011Z,15.57
2022-11-26T15:48:27.196Z,16.60
2022-11-26T15:50:01.920Z,17.60
2022-11-26T15:51:41.769Z,18.05
2022-11-26T15:53:36.272Z,18.80
2022-11-26T15:55:13.183Z,20.58
2022-11-26T15:56:50.353Z,18.60
2022-11-26T15:58:28.664Z,17.90
2022-11-26T16:00:09.791Z,16.67
2022-11-26T16:01:45.623Z,17.45
2022-11-26T16:03:45.358Z,15.07
2022-11-26T16:05:28.962Z,17.10
2022-11-26T16:07:23.363Z,14.75
2022-11-26T16:09:00.708Z,14.55
2022-11-26T16:10:36.907Z,14.38
2022-11-26T16:12:29.045Z,13.32
2022-11-26T16:14:32.443Z,14.35
2022-11-26T16:16:04.122Z,12.43
2022-11-26T16:17:37.062Z,14.07
2022-11-26T16:19:14.134Z,13.13
2022-11-26T16:20:46.021Z,12.88
2022-11-26T16:22:22.811Z,13.32
2022-11-26T16:24:05.708Z,11.70
2022-11-26T16:25:38.211Z,12.43
2022-11-26T16:27:20.913Z,12.18
2022-11-26T16:28:53.612Z,12.80
2022-11-26T16:30:25.420Z,12.35
2022-11-26T16:31:57.458Z,12.52
2022-11-26T16:33:29.501Z,12.93
2022-11-26T16:35:12.401Z,11.88
2022-11-26T16:37:03.334Z,11.30
2022-11-26T16:38:35.076Z,12.82
2022-11-26T16:40:15.981Z,12.20
2022-11-26T16:41:47.705Z,12.82
2022-11-26T16:43:19.812Z,11.20
2022-11-26T16:44:51.713Z,11.23
2022-11-26T16:46:24.207Z,12.55
2022-11-26T16:47:56.258Z,12.10
2022-11-26T16:49:30.324Z,12.32
2022-11-26T16:51:02.367Z,11.57
2022-11-26T16:52:39.189Z,10.77
2022-11-26T16:54:10.927Z,13.00
2022-11-26T16:55:42.744Z,12.30
2022-11-26T16:57:17.211Z,11.43
2022-11-26T16:58:50.279Z,11.57
2022-11-26T17:00:26.007Z,12.13
2022-11-26T17:01:57.717Z,11.80
2022-11-26T17:03:33.241Z,12.48
2022-11-26T17:05:05.638Z,11.90
2022-11-26T17:06:39.233Z,10.43
2022-11-26T17:08:12.806Z,12.20
2022-11-26T17:09:44.707Z,11.80
2022-11-26T17:11:16.981Z,12.65
2022-11-26T17:12:49.855Z,12.90
2022-11-26T17:14:21.704Z,12.30
2022-11-26T17:15:53.479Z,11.30
2022-11-26T17:17:29.087Z,11.80
2022-11-26T17:19:00.835Z,13.63
2022-11-26T17:20:32.704Z,13.15
2022-11-26T17:22:04.532Z,14.23
2022-11-26T17:23:36.682Z,13.10
2022-11-26T17:25:09.119Z,12.70
2022-11-26T17:26:41.753Z,12.60
2022-11-26T17:28:15.094Z,12.38
2022-11-26T17:29:47.841Z,12.27
2022-11-26T17:31:19.912Z,11.77
2022-11-26T17:32:51.798Z,10.48
2022-11-26T17:34:23.539Z,11.20
2022-11-26T17:35:56.237Z,12.52
2022-11-26T17:37:29.845Z,11.73
2022-11-26T17:39:01.628Z,13.52
2022-11-26T17:40:33.484Z,14.93
2022-11-26T17:42:05.427Z,13.75
2022-11-26T17:43:38.216Z,14.98
2022-11-26T17:45:10.857Z,15.43
2022-11-26T17:47:09.177Z,13.63
2022-11-26T17:48:34.393Z,14.88
2022-11-26T17:50:22.800Z,15.02
2022-11-26T17:51:54.530Z,14.18
2022-11-26T17:53:26.273Z,12.45
2022-11-26T17:54:58.098Z,14.18
2022-11-26T17:56:30.318Z,13.93
2022-11-26T17:58:02.390Z,14.43
2022-11-26T17:59:34.140Z,15.32
2022-11-26T18:01:05.915Z,16.52
2022-11-26T18:02:37.738Z,14.38
2022-11-26T18:04:09.509Z,15.55
2022-11-26T18:05:42.358Z,14.23
2022-11-26T18:07:17.721Z,15.77
2022-11-26T18:08:49.525Z,15.73
2022-11-26T18:10:22.784Z,16.05
2022-11-26T18:11:56.040Z,13.90
2022-11-26T18:13:27.812Z,14.73
2022-11-26T18:15:00.574Z,14.48
2022-11-26T18:16:33.409Z,15.40
2022-11-26T18:18:05.389Z,17.10
2022-11-26T18:19:43.219Z,16.70
2022-11-26T18:21:15.968Z,18.40
2022-11-26T18:22:53.263Z,16.58
2022-11-26T18:24:25.014Z,17.80
2022-11-26T18:25:56.753Z,17.92
2022-11-26T18:27:31.157Z,17.48
2022-11-26T18:29:03.929Z,18.00
2022-11-26T18:30:35.809Z,15.75
2022-11-26T18:32:07.607Z,16.13
2022-11-26T18:33:39.364Z,17.90
2022-11-26T18:35:11.366Z,17.45
2022-11-26T18:36:43.213Z,17.55
2022-11-26T18:38:15.091Z,16.85
2022-11-26T18:39:46.861Z,16.95
2022-11-26T18:41:19.236Z,17.73
2022-11-26T18:42:52.982Z,17.52
2022-11-26T18:44:24.994Z,16.63
2022-11-26T18:45:56.810Z,16.60
2022-11-26T18:47:28.694Z,18.35
2022-11-26T18:49:00.766Z,16.35
2022-11-26T18:50:32.504Z,15.77
2022-11-26T18:52:04.392Z,15.55
2022-11-26T18:53:36.486Z,16.00
2022-11-26T18:55:09.858Z,19.60
2022-11-26T18:56:41.610Z,15.32
2022-11-26T18:58:14.264Z,15.80
2022-11-26T18:59:46.847Z,14.65
2022-11-26T19:01:23.569Z,15.05
2022-11-26T19:02:55.473Z,15.38
2022-11-26T19:04:27.279Z,16.00
2022-11-26T19:05:59.280Z,16.40
2022-11-26T19:07:32.869Z,16.38
2022-11-26T19:09:11.409Z,16.60
2022-11-26T19:10:43.207Z,16.77
2022-11-26T19:12:14.924Z,16.38
2022-11-26T19:13:48.187Z,16.13
2022-11-26T19:15:19.966Z,14.60
2022-11-26T19:16:51.967Z,15.40
2022-11-26T19:18:24.018Z,14.57
2022-11-26T19:19:55.728Z,12.80
2022-11-26T19:21:29.514Z,15.90
2022-11-26T19:23:01.286Z,14.10
2022-11-26T19:24:33.045Z,14.48
2022-11-26T19:26:05.697Z,15.35
2022-11-26T19:27:37.555Z,15.23
2022-11-26T19:29:12.247Z,14.93
2022-11-26T19:30:44.243Z,16.13
2022-11-26T19:32:16.098Z,15.23
2022-11-26T19:33:53.275Z,15.95
2022-11-26T19:35:25.278Z,18.40
2022-11-26T19:36:57.873Z,16.13
2022-11-26T19:38:29.697Z,15.60
2022-11-26T19:40:01.613Z,18.95
2022-11-26T19:41:34.014Z,17.10
2022-11-26T19:43:05.956Z,16.75
2022-11-26T19:44:37.913Z,16.48
2022-11-26T19:46:15.174Z,16.90
2022-11-26T19:47:46.930Z,16.67
2022-11-26T19:49:18.707Z,18.90
2022-11-26T19:50:55.325Z,15.95
2022-11-26T19:52:27.103Z,16.85
2022-11-26T19:53:59.026Z,18.10
2022-11-26T19:55:30.790Z,17.23
2022-11-26T19:57:02.606Z,17.38
2022-11-26T19:58:36.453Z,16.92
2022-11-26T20:00:09.659Z,17.15
2022-11-26T20:01:41.837Z,16.92
2022-11-26T20:03:13.627Z,15.27
2022-11-26T20:04:45.378Z,15.23
2022-11-26T20:06:23.553Z,16.33
2022-11-26T20:07:55.359Z,18.58
2022-11-26T20:09:27.257Z,18.38
2022-11-26T20:11:03.294Z,18.48
2022-11-26T20:12:35.030Z,17.70
2022-11-26T20:14:10.982Z,18.27
2022-11-26T20:15:47.552Z,18.10
2022-11-26T20:17:19.383Z,17.20
2022-11-26T20:18:51.223Z,16.10
2022-11-26T20:20:22.992Z,16.65
2022-11-26T20:21:54.761Z,15.98
2022-11-26T20:23:27.387Z,16.77
2022-11-26T20:24:59.141Z,17.42
2022-11-26T20:26:36.922Z,17.80
2022-11-26T20:28:09.132Z,17.58
2022-11-26T20:29:41.034Z,17.65
2022-11-26T20:31:16.360Z,15.13
2022-11-26T20:32:51.517Z,19.00
2022-11-26T20:34:26.332Z,17.27
2022-11-26T20:35:58.360Z,15.77
2022-11-26T20:37:30.134Z,16.38
2022-11-26T20:39:02.764Z,17.98
2022-11-26T20:40:34.616Z,16.45
2022-11-26T20:42:06.432Z,17.08
2022-11-26T20:43:38.779Z,17.02
2022-11-26T20:45:13.177Z,16.58
2022-11-26T20:46:45.057Z,16.90
2022-11-26T20:48:16.874Z,17.40
2022-11-26T20:49:48.834Z,17.58
2022-11-26T20:51:22.242Z,17.15
2022-11-26T20:52:54.256Z,16.35
2022-11-26T20:54:26.961Z,16.52
2022-11-26T20:55:58.789Z,16.83